Time;durP1;ratioP1;P1;durP2;ratioP2;P2;SDS_P1;SDS_P2;PMS_P1;PMS_P2;Temp;Humidity;BMP_temperature;BMP_pressure;BME280_temperature;BME280_humidity;BME280_pressure;Samples;Min_cycle;Max_cycle;Signal;HPM_P1;HPM_P2
2024/02/15 00:00:43;;;;;;;16.67;10.70;;;;;;;-7.18;100.00;102523.63;5033354;28;20091;-68
2024/02/15 00:03:13;;;;;;;22.15;13.30;;;;;;;-7.01;100.00;102539.06;5032153;28;20037;-72
2024/02/15 00:05:39;;;;;;;19.02;11.23;;;;;;;-6.96;100.00;102542.50;5032479;28;20132;-70
2024/02/15 00:08:06;;;;;;;19.27;11.02;;;;;;;-6.87;100.00;102542.47;5031796;28;20068;-72
2024/02/15 00:10:31;;;;;;;21.98;11.07;;;;;;;-6.94;100.00;102535.59;5033660;28;20033;-69
2024/02/15 00:12:58;;;;;;;18.10;12.50;;;;;;;-7.10;100.00;102523.59;5031696;28;20616;-72
2024/02/15 00:15:23;;;;;;;16.48;10.00;;;;;;;-6.98;100.00;102549.41;5031368;28;20029;-71
2024/02/15 00:17:49;;;;;;;24.63;10.77;;;;;;;-6.92;100.00;102541.66;5031388;28;20059;-71
2024/02/15 00:20:16;;;;;;;17.53;11.00;;;;;;;-7.14;100.00;102496.00;5031413;28;20038;-72
2024/02/15 00:22:41;;;;;;;19.85;11.40;;;;;;;-6.89;100.00;102546.81;5031766;28;20033;-69
2024/02/15 00:25:08;;;;;;;18.97;11.30;;;;;;;-7.07;100.00;102521.00;5031455;28;20400;-72
2024/02/15 00:27:35;;;;;;;22.38;10.95;;;;;;;-6.96;100.00;102547.69;5033186;28;20512;-72
2024/02/15 00:30:01;;;;;;;19.00;11.38;;;;;;;-7.09;100.00;102514.97;5031389;28;20044;-70
2024/02/15 00:32:29;;;;;;;16.92;10.77;;;;;;;-7.00;100.00;102540.81;5032546;28;20132;-72
2024/02/15 00:34:55;;;;;;;14.83;11.73;;;;;;;-7.12;100.00;102543.47;5032162;28;20116;-70
2024/02/15 00:37:20;;;;;;;21.87;11.23;;;;;;;-7.17;100.00;102530.53;5032179;28;20127;-71
2024/02/15 00:39:46;;;;;;;16.53;10.20;;;;;;;-7.20;100.00;102531.41;5032984;28;20037;-70
2024/02/15 00:42:12;;;;;;;23.27;12.17;;;;;;;-7.08;100.00;102552.94;5032292;28;20029;-71
2024/02/15 00:44:37;;;;;;;16.03;10.97;;;;;;;-7.18;100.00;102526.22;5034297;28;20115;-71
2024/02/15 00:47:03;;;;;;;18.23;11.93;;;;;;;-7.24;100.00;102516.72;5031556;28;20493;-69
2024/02/15 00:49:29;;;;;;;21.30;11.30;;;;;;;-7.15;100.00;102515.00;5034012;28;20488;-68
2024/02/15 00:51:54;;;;;;;14.40;9.73;;;;;;;-7.09;100.00;102543.44;5033921;28;20037;-71
2024/02/15 00:54:20;;;;;;;23.83;11.43;;;;;;;-7.30;100.00;102521.09;5034360;28;20141;-69
2024/02/15 00:56:45;;;;;;;15.00;9.50;;;;;;;-7.20;100.00;102543.50;5032593;28;20029;-70
2024/02/15 00:59:11;;;;;;;19.10;10.47;;;;;;;-7.47;100.00;102503.06;5033798;28;20033;-71
2024/02/15 01:01:37;;;;;;;24.57;12.00;;;;;;;-7.34;100.00;102530.59;5031668;28;20041;-68
2024/02/15 01:04:04;;;;;;;15.70;10.90;;;;;;;-7.38;100.00;102520.25;5021391;28;20034;-69
2024/02/15 01:06:31;;;;;;;17.70;13.55;;;;;;;-7.22;100.00;102524.53;5038606;28;20042;-71
2024/02/15 01:08:57;;;;;;;17.52;12.38;;;;;;;-7.23;100.00;102534.03;5036174;28;20489;-70
2024/02/15 01:11:23;;;;;;;19.02;10.60;;;;;;;-7.42;100.00;102519.41;5034201;28;20052;-70
2024/02/15 01:13:50;;;;;;;22.38;11.93;;;;;;;-7.40;100.00;102534.94;5031985;28;20035;-71
2024/02/15 01:16:16;;;;;;;19.10;11.10;;;;;;;-7.63;100.00;102514.31;5031985;28;20131;-72
2024/02/15 01:18:42;;;;;;;17.93;12.37;;;;;;;-7.85;100.00;102454.00;5031520;28;20565;-69
2024/02/15 01:21:07;;;;;;;18.50;12.63;;;;;;;-7.46;100.00;102515.13;5031957;28;20041;-70
2024/02/15 01:23:36;;;;;;;18.47;10.37;;;;;;;-7.65;100.00;102485.84;5032539;28;20120;-68
2024/02/15 01:26:03;;;;;;;16.98;11.55;;;;;;;-7.32;100.00;102539.22;5031837;28;20100;-71
2024/02/15 01:28:28;;;;;;;19.63;11.43;;;;;;;-7.27;100.00;102542.63;5031874;28;20072;-68
2024/02/15 01:30:54;;;;;;;18.77;10.83;;;;;;;-7.22;100.00;102542.66;5030911;28;20029;-73
2024/02/15 01:33:20;;;;;;;21.60;13.40;;;;;;;-7.36;100.00;102524.56;5031147;28;20103;-70
2024/02/15 01:35:45;;;;;;;19.77;12.20;;;;;;;-7.37;100.00;102509.91;5031825;28;20120;-69
2024/02/15 01:38:11;;;;;;;21.97;13.80;;;;;;;-7.40;100.00;102520.28;5031499;28;20103;-68
2024/02/15 01:40:36;;;;;;;20.77;12.97;;;;;;;-7.51;100.00;102512.56;5031562;28;20112;-70
2024/02/15 01:43:03;;;;;;;20.87;13.07;;;;;;;-7.81;100.00;102466.94;5030402;28;20065;-69
2024/02/15 01:45:29;;;;;;;21.42;11.30;;;;;;;-7.45;100.00;102522.03;5013633;28;20120;-70
2024/02/15 01:47:55;;;;;;;17.87;10.83;;;;;;;-7.32;100.00;102543.53;5032094;28;20573;-72
2024/02/15 01:50:23;;;;;;;21.05;11.15;;;;;;;-7.40;100.00;102540.13;5030284;28;20073;-69
2024/02/15 01:52:52;;;;;;;18.08;10.93;;;;;;;-7.66;100.00;102491.91;5031739;28;20123;-70
2024/02/15 01:55:18;;;;;;;23.10;13.38;;;;;;;-7.48;100.00;102527.22;5031533;28;20038;-72
2024/02/15 01:57:48;;;;;;;16.83;12.20;;;;;;;-7.57;100.00;102519.44;5031829;28;20051;-71
2024/02/15 02:00:16;;;;;;;19.20;10.85;;;;;;;-7.59;100.00;102510.84;5035252;28;20044;-68
2024/02/15 02:02:53;;;;;;;16.80;11.00;;;;;;;-7.49;100.00;102504.78;5035755;28;20416;-70
2024/02/15 02:05:19;;;;;;;14.85;9.80;;;;;;;-7.28;100.00;102546.09;5034285;28;20067;-69
2024/02/15 02:07:45;;;;;;;18.60;11.85;;;;;;;-7.26;100.00;102552.13;5035564;28;20033;-69
2024/02/15 02:10:12;;;;;;;22.13;11.47;;;;;;;-7.35;100.00;102528.00;5035151;28;20041;-70
2024/02/15 02:12:39;;;;;;;17.65;10.48;;;;;;;-7.39;100.00;102542.69;5035211;28;20037;-67
2024/02/15 02:15:09;;;;;;;16.67;11.00;;;;;;;-7.35;100.00;102549.59;5034837;28;20099;-69
2024/02/15 02:17:35;;;;;;;15.85;11.20;;;;;;;-7.37;100.00;102545.28;5035012;28;20029;-70
2024/02/15 02:20:07;;;;;;;19.02;11.70;;;;;;;-7.41;100.00;102544.44;5034889;28;20055;-68
2024/02/15 02:22:35;;;;;;;20.67;11.32;;;;;;;-7.85;100.00;102470.38;5035937;28;20041;-69
2024/02/15 02:25:07;;;;;;;21.67;12.73;;;;;;;-7.49;100.00;102525.50;5037020;28;20064;-70
2024/02/15 02:27:38;;;;;;;19.65;12.13;;;;;;;-7.81;100.00;102476.41;5034937;28;20528;-69
2024/02/15 02:30:06;;;;;;;22.63;13.57;;;;;;;-7.51;100.00;102516.88;5034762;28;20457;-71
2024/02/15 02:32:36;;;;;;;19.85;12.13;;;;;;;-7.33;100.00;102532.31;5050638;28;20424;-70
2024/02/15 02:35:03;;;;;;;17.63;10.65;;;;;;;-7.45;100.00;102513.41;5035038;28;20140;-71
2024/02/15 02:37:29;;;;;;;20.08;10.95;;;;;;;-7.84;100.00;102472.09;5033732;28;20045;-71
2024/02/15 02:39:54;;;;;;;18.73;13.10;;;;;;;-7.59;100.00;102513.44;5034577;28;20063;-68
2024/02/15 02:42:21;;;;;;;15.53;10.77;;;;;;;-7.40;100.00;102540.97;5034523;28;20033;-68
2024/02/15 02:44:46;;;;;;;19.38;13.07;;;;;;;-7.37;100.00;102551.31;5034584;28;20065;-68
2024/02/15 02:47:12;;;;;;;17.80;11.53;;;;;;;-7.61;100.00;102491.88;5033189;28;20083;-69
2024/02/15 02:49:37;;;;;;;17.33;11.67;;;;;;;-7.30;100.00;102537.47;5033435;28;20397;-72
2024/02/15 02:52:04;;;;;;;20.97;12.50;;;;;;;-7.15;100.00;102548.66;5034689;28;20096;-70
2024/02/15 02:54:30;;;;;;;22.55;12.57;;;;;;;-7.08;100.00;102547.75;5033103;28;20041;-69
2024/02/15 02:56:55;;;;;;;24.17;12.50;;;;;;;-7.15;100.00;102535.72;5034254;28;20108;-71
2024/02/15 02:59:21;;;;;;;19.50;10.83;;;;;;;-7.12;100.00;102546.91;5034476;28;20381;-71
2024/02/15 03:01:47;;;;;;;21.40;12.90;;;;;;;-7.24;100.00;102531.41;5034306;28;20068;-69
2024/02/15 03:04:16;;;;;;;20.92;12.20;;;;;;;-7.20;100.00;102534.00;5034682;28;20477;-70
2024/02/15 03:06:43;;;;;;;28.83;13.48;;;;;;;-7.24;100.00;102540.03;5032947;28;20512;-69
2024/02/15 03:09:09;;;;;;;20.20;12.05;;;;;;;-7.37;100.00;102516.81;5032753;28;20493;-67
2024/02/15 03:11:36;;;;;;;28.25;13.02;;;;;;;-7.15;100.00;102531.38;5034196;28;20046;-69
2024/02/15 03:14:05;;;;;;;21.07;11.53;;;;;;;-7.21;100.00;102521.94;5034591;28;20064;-67
2024/02/15 03:16:32;;;;;;;31.85;15.45;;;;;;;-7.09;100.00;102535.69;5033916;28;20084;-70
2024/02/15 03:18:57;;;;;;;22.50;13.93;;;;;;;-7.09;100.00;102556.38;5032494;28;20047;-69
2024/02/15 03:21:23;;;;;;;25.67;14.20;;;;;;;-7.34;100.00;102525.41;5034289;28;20053;-69
2024/02/15 03:23:48;;;;;;;32.30;14.20;;;;;;;-7.30;100.00;102550.41;5034643;28;20080;-67
2024/02/15 03:26:14;;;;;;;25.53;12.83;;;;;;;-7.58;100.00;102504.78;5032875;28;20053;-68
2024/02/15 03:28:39;;;;;;;22.70;11.93;;;;;;;-7.70;100.00;102486.75;5033900;28;20474;-70
2024/02/15 03:31:05;;;;;;;28.63;14.20;;;;;;;-7.30;100.00;102547.84;5034095;28;20041;-71
2024/02/15 03:33:35;;;;;;;26.70;14.17;;;;;;;-7.42;100.00;102536.69;5032863;28;20033;-71
2024/02/15 03:36:00;;;;;;;22.40;14.27;;;;;;;-7.52;100.00;102525.47;5033820;28;20038;-72
2024/02/15 03:38:29;;;;;;;20.97;13.20;;;;;;;-7.51;100.00;102532.41;5034215;28;20447;-69
2024/02/15 03:40:58;;;;;;;25.35;16.67;;;;;;;-7.43;100.00;102550.47;5033559;28;20048;-71
2024/02/15 03:43:23;;;;;;;24.73;13.63;;;;;;;-7.68;100.00;102510.88;5034447;28;20037;-69
2024/02/15 03:45:50;;;;;;;25.27;13.83;;;;;;;-7.46;100.00;102522.03;5032841;28;20061;-69
2024/02/15 03:48:17;;;;;;;29.42;15.00;;;;;;;-7.32;100.00;102538.34;5033850;28;20045;-70
2024/02/15 03:50:43;;;;;;;21.48;13.70;;;;;;;-7.43;100.00;102528.06;5033524;28;20067;-68
2024/02/15 03:53:11;;;;;;;22.27;12.88;;;;;;;-7.27;100.00;102555.59;5032242;28;20083;-72
2024/02/15 03:55:36;;;;;;;21.45;12.90;;;;;;;-7.35;100.00;102536.63;5016085;28;20454;-68
2024/02/15 03:58:02;;;;;;;26.40;16.03;;;;;;;-7.59;100.00;102490.13;5032340;28;20029;-71
2024/02/15 04:00:28;;;;;;;24.40;13.43;;;;;;;-8.29;100.00;102395.53;5033160;28;20073;-68
2024/02/15 04:02:54;;;;;;;27.73;14.77;;;;;;;-7.59;100.00;102509.13;5033769;28;20124;-70
2024/02/15 04:05:21;;;;;;;25.65;12.65;;;;;;;-8.31;100.00;102399.84;5033567;28;20138;-71
2024/02/15 04:07:47;;;;;;;27.25;16.13;;;;;;;-7.51;100.00;102543.59;5033559;28;20182;-70
2024/02/15 04:10:13;;;;;;;25.25;13.88;;;;;;;-7.47;100.00;102553.94;5032043;28;20087;-72
2024/02/15 04:13:00;;;;;;;25.65;13.60;;;;;;;-7.47;100.00;102565.16;5033203;28;20103;-70
2024/02/15 04:15:25;;;;;;;28.33;14.95;;;;;;;-7.58;100.00;102541.88;5032254;28;20083;-73
2024/02/15 04:17:56;;;;;;;26.10;14.30;;;;;;;-7.55;100.00;102565.16;5032093;28;20037;-71
2024/02/15 04:20:22;;;;;;;23.90;14.40;;;;;;;-7.68;100.00;102545.38;5032028;28;20029;-71
2024/02/15 04:22:50;;;;;;;28.70;14.97;;;;;;;-7.56;100.00;102559.97;5032300;28;20099;-71
2024/02/15 04:25:18;;;;;;;28.33;13.77;;;;;;;-7.72;100.00;102551.41;5015262;28;20054;-70
2024/02/15 04:27:52;;;;;;;25.00;13.27;;;;;;;-7.68;100.00;102535.03;5031629;28;20041;-72
2024/02/15 04:30:18;;;;;;;20.85;14.50;;;;;;;-8.19;100.00;102473.91;5031960;28;20049;-70
2024/02/15 04:32:43;;;;;;;24.80;14.40;;;;;;;-7.84;100.00;102529.00;5033105;28;20451;-72
2024/02/15 04:35:09;;;;;;;30.03;15.87;;;;;;;-7.93;100.00;102491.97;5031822;28;20137;-72
2024/02/15 04:37:37;;;;;;;26.02;14.18;;;;;;;-7.52;100.00;102564.28;5032876;28;20522;-71
2024/02/15 04:40:10;;;;;;;22.60;14.40;;;;;;;-7.72;100.00;102545.38;5035974;28;20049;-74
2024/02/15 04:42:41;;;;;;;27.05;13.95;;;;;;;-7.71;100.00;102545.38;5035770;28;20504;-74
2024/02/15 04:45:08;;;;;;;31.88;16.70;;;;;;;-7.59;100.00;102554.81;5019526;28;20577;-73
2024/02/15 04:47:45;;;;;;;26.52;15.20;;;;;;;-7.56;100.00;102565.16;5038665;28;20081;-72
2024/02/15 04:50:11;;;;;;;28.70;13.45;;;;;;;-7.67;100.00;102546.22;5047711;28;20049;-77
2024/02/15 04:52:39;;;;;;;28.88;14.18;;;;;;;-7.53;100.00;102565.16;5051974;28;20037;-73
2024/02/15 04:55:05;;;;;;;29.27;13.73;;;;;;;-7.75;100.00;102532.47;5048017;28;20048;-67
2024/02/15 04:57:33;;;;;;;24.73;13.80;;;;;;;-7.57;100.00;102566.88;5045508;28;20409;-68
2024/02/15 04:59:59;;;;;;;25.95;14.90;;;;;;;-7.87;100.00;102508.31;5044114;28;20097;-72
2024/02/15 05:02:25;;;;;;;30.73;16.38;;;;;;;-7.56;100.00;102567.75;5040055;28;20088;-77
2024/02/15 05:04:56;;;;;;;28.23;15.93;;;;;;;-7.56;100.00;102544.47;5044483;28;20033;-68
2024/02/15 05:07:22;;;;;;;23.10;12.50;;;;;;;-7.37;100.00;102577.19;5044032;28;20048;-72
2024/02/15 05:09:48;;;;;;;25.05;14.75;;;;;;;-7.70;100.00;102526.41;5039854;28;20045;-69
2024/02/15 05:12:24;;;;;;;27.27;14.23;;;;;;;-7.78;100.00;102512.63;5041955;28;20409;-69
2024/02/15 05:14:50;;;;;;;28.05;13.43;;;;;;;-7.65;100.00;102536.72;5039964;28;20451;-69
2024/02/15 05:17:16;;;;;;;31.63;14.43;;;;;;;-7.35;100.00;102570.28;5040267;28;20039;-66
2024/02/15 05:19:42;;;;;;;28.33;16.15;;;;;;;-7.54;100.00;102532.38;5039639;28;20037;-70
2024/02/15 05:22:07;;;;;;;29.47;13.87;;;;;;;-7.46;100.00;102550.50;5036433;28;20037;-71
2024/02/15 05:24:35;;;;;;;28.57;16.27;;;;;;;-7.34;100.00;102559.06;5033070;28;20370;-73
2024/02/15 05:27:01;;;;;;;26.02;15.55;;;;;;;-7.30;100.00;102578.91;5030870;28;20180;-72
2024/02/15 05:29:27;;;;;;;28.40;15.03;;;;;;;-7.61;100.00;102548.78;5030971;28;20119;-73
2024/02/15 05:31:54;;;;;;;35.45;16.25;;;;;;;-7.62;100.00;102552.25;5030840;28;20036;-75
2024/02/15 05:34:20;;;;;;;35.75;18.48;;;;;;;-7.36;100.00;102598.78;5032181;28;20159;-70
2024/02/15 05:36:48;;;;;;;27.80;15.07;;;;;;;-7.84;100.00;102513.47;5030394;28;20128;-72
2024/02/15 05:39:14;;;;;;;30.38;14.55;;;;;;;-7.39;100.00;102594.47;5030817;28;20052;-70
2024/02/15 05:41:40;;;;;;;28.60;14.35;;;;;;;-7.34;100.00;102599.63;5031790;28;20191;-70
2024/02/15 05:44:06;;;;;;;26.13;14.30;;;;;;;-7.31;100.00;102595.28;5031520;28;20116;-71
2024/02/15 05:46:33;;;;;;;23.60;14.60;;;;;;;-7.45;100.00;102567.75;5031152;28;20493;-70
2024/02/15 05:48:59;;;;;;;31.45;16.60;;;;;;;-7.22;100.00;102613.41;5031364;28;20044;-69
2024/02/15 05:51:25;;;;;;;35.53;15.57;;;;;;;-7.28;100.00;102608.22;5030542;28;20104;-70
2024/02/15 05:53:50;;;;;;;31.33;15.73;;;;;;;-7.36;100.00;102607.38;5031436;28;20068;-70
2024/02/15 05:56:16;;;;;;;31.10;15.47;;;;;;;-7.44;100.00;102592.75;5030471;28;20047;-73
2024/02/15 05:58:42;;;;;;;35.30;14.80;;;;;;;-7.40;100.00;102592.75;5031820;28;20041;-72
2024/02/15 06:01:11;;;;;;;37.57;16.37;;;;;;;-7.60;100.00;102558.28;5030752;28;20124;-75
2024/02/15 06:03:39;;;;;;;33.13;16.88;;;;;;;-7.34;100.00;102607.38;5031529;28;20038;-69
2024/02/15 06:06:08;;;;;;;34.00;14.55;;;;;;;-7.43;100.00;102603.09;5030667;28;20033;-71
2024/02/15 06:08:37;;;;;;;33.75;18.63;;;;;;;-7.30;100.00;102617.72;5036467;28;20048;-71
2024/02/15 06:11:04;;;;;;;30.23;15.60;;;;;;;-7.39;100.00;102599.63;5032068;28;20045;-72
2024/02/15 06:13:31;;;;;;;40.75;18.73;;;;;;;-7.56;100.00;102580.69;5036383;28;20065;-71
2024/02/15 06:15:57;;;;;;;31.83;17.25;;;;;;;-7.50;100.00;102588.47;5043075;28;20037;-71
2024/02/15 06:18:28;;;;;;;31.63;17.35;;;;;;;-7.30;100.00;102609.97;5039016;28;20556;-72
2024/02/15 06:20:57;;;;;;;31.42;17.23;;;;;;;-7.37;100.00;102584.09;5031502;28;20049;-70
2024/02/15 06:23:23;;;;;;;34.47;16.90;;;;;;;-7.33;100.00;102591.84;5048127;28;20030;-72
2024/02/15 06:25:56;;;;;;;32.22;16.40;;;;;;;-7.38;100.00;102570.31;5035344;28;20092;-70
2024/02/15 06:39:46;;;;;;;31.98;17.63;;;;;;;-6.84;100.00;102612.41;5037773;28;20053;-70
2024/02/15 06:42:18;;;;;;;30.85;17.52;;;;;;;-6.87;100.00;102607.22;5031567;28;20099;-70
2024/02/15 06:44:47;;;;;;;40.25;19.15;;;;;;;-6.95;100.00;102611.56;5033986;28;20041;-71
2024/02/15 06:47:15;;;;;;;44.20;18.83;;;;;;;-6.82;100.00;102607.22;5033813;28;20049;-70
2024/02/15 06:49:41;;;;;;;31.00;16.58;;;;;;;-6.92;100.00;102585.69;5035419;28;20040;-70
2024/02/15 06:52:07;;;;;;;32.30;17.10;;;;;;;-6.73;100.00;102623.56;5036948;28;20040;-70
2024/02/15 06:54:35;;;;;;;37.47;17.13;;;;;;;-6.61;100.00;102622.66;5033996;28;20037;-71
2024/02/15 06:57:04;;;;;;;25.05;15.80;;;;;;;-6.76;100.00;102592.50;5040991;28;20055;-71
2024/02/15 06:59:31;;;;;;;30.80;15.73;;;;;;;-6.85;100.00;102579.59;5041839;28;20172;-72
2024/02/15 07:01:57;;;;;;;31.02;14.68;;;;;;;-6.50;100.00;102632.97;5062107;28;20284;-71
2024/02/15 07:04:24;;;;;;;37.92;17.45;;;;;;;-6.39;100.00;102628.56;5034974;28;20064;-71
2024/02/15 07:06:51;;;;;;;34.65;16.67;;;;;;;-6.45;100.00;102602.69;5036050;28;20057;-71
2024/02/15 07:09:20;;;;;;;36.15;16.70;;;;;;;-6.38;100.00;102619.91;5035737;28;20124;-73
2024/02/15 07:11:46;;;;;;;33.72;16.00;;;;;;;-6.39;100.00;102625.97;5043424;28;20037;-73
2024/02/15 07:14:12;;;;;;;34.87;17.00;;;;;;;-6.64;100.00;102602.81;5033340;28;20519;-76
2024/02/15 07:16:38;;;;;;;35.63;18.40;;;;;;;-6.77;100.00;102595.94;5023308;28;20272;-76
2024/02/15 07:19:04;;;;;;;31.53;15.20;;;;;;;-6.72;100.00;102614.91;5021259;28;20110;-76
2024/02/15 07:21:31;;;;;;;38.63;18.87;;;;;;;-6.81;100.00;102604.59;5040862;28;20104;-76
2024/02/15 07:23:57;;;;;;;51.03;20.88;;;;;;;-6.80;100.00;102615.84;5038732;28;20088;-72
2024/02/15 07:26:25;;;;;;;32.83;19.17;;;;;;;-6.94;100.00;102608.09;5031665;28;20579;-76
2024/02/15 07:28:55;;;;;;;36.95;16.98;;;;;;;-6.78;100.00;102633.09;5035115;28;20049;-75
2024/02/15 07:31:21;;;;;;;34.65;17.27;;;;;;;-6.89;100.00;102596.88;5034986;28;20041;-72
2024/02/15 07:33:48;;;;;;;33.57;16.03;;;;;;;-6.74;100.00;102621.84;5035789;28;20049;-75
2024/02/15 07:36:18;;;;;;;36.58;18.80;;;;;;;-6.73;100.00;102617.53;5045393;28;20061;-72
2024/02/15 07:38:45;;;;;;;32.88;17.83;;;;;;;-6.70;100.00;102600.22;5045911;28;20041;-75
2024/02/15 07:41:12;;;;;;;34.72;18.40;;;;;;;-6.58;100.00;102597.59;5050279;28;20049;-76
2024/02/15 07:43:39;;;;;;;37.28;18.92;;;;;;;-6.35;100.00;102630.28;5051863;28;20043;-72
2024/02/15 07:46:04;;;;;;;36.22;18.70;;;;;;;-6.85;100.00;102545.06;5042562;28;20047;-78
2024/02/15 07:48:30;;;;;;;36.47;19.20;;;;;;;-6.59;100.00;102585.50;5037753;28;20564;-74
2024/02/15 07:50:55;;;;;;;33.77;17.03;;;;;;;-6.60;100.00;102583.78;5039361;28;20178;-76
2024/02/15 07:53:21;;;;;;;32.67;17.83;;;;;;;-6.44;100.00;102594.03;5039528;28;20551;-74
2024/02/15 07:55:46;;;;;;;31.60;18.63;;;;;;;-6.17;100.00;102627.56;5040761;28;20029;-73
2024/02/15 07:58:13;;;;;;;37.23;19.43;;;;;;;-6.46;100.00;102585.41;5068946;28;20034;-72
2024/02/15 08:00:39;;;;;;;37.05;16.15;;;;;;;-6.18;100.00;102638.81;5042119;28;20060;-76
2024/02/15 08:03:04;;;;;;;37.63;19.10;;;;;;;-6.29;100.00;102589.63;5055255;28;20041;-74
2024/02/15 08:05:30;;;;;;;36.37;18.43;;;;;;;-5.96;100.00;102645.56;5042613;28;20128;-73
2024/02/15 08:07:57;;;;;;;41.90;18.97;;;;;;;-6.15;100.00;102623.22;5024610;28;20047;-76
2024/02/15 08:10:23;;;;;;;35.92;19.35;;;;;;;-6.26;100.00;102607.75;5038430;28;20117;-73
2024/02/15 08:12:52;;;;;;;41.10;21.13;;;;;;;-6.03;100.00;102638.72;5042031;28;20041;-74
2024/02/15 08:15:18;;;;;;;36.58;17.58;;;;;;;-5.99;100.00;102630.03;5043163;28;20076;-73
2024/02/15 08:17:46;;;;;;;38.13;17.27;;;;;;;-6.01;100.00;102615.34;5037834;28;20395;-74
2024/02/15 08:20:13;;;;;;;64.88;25.38;;;;;;;-5.99;100.00;102648.19;5022752;28;20025;-73
2024/02/15 08:22:41;;;;;;;37.28;20.20;;;;;;;-6.16;100.00;102624.09;5039596;28;20072;-75
2024/02/15 08:25:12;;;;;;;36.47;19.88;;;;;;;-5.95;100.00;102652.47;5034807;28;20057;-74
2024/02/15 08:27:45;;;;;;;39.63;19.10;;;;;;;-6.15;100.00;102612.84;5038141;28;20555;-74
2024/02/15 08:30:12;;;;;;;43.25;23.52;;;;;;;-6.33;100.00;102568.91;5035910;28;20037;-73
2024/02/15 08:32:45;;;;;;;48.67;20.17;;;;;;;-5.77;100.00;102645.41;5034773;28;20906;-73
2024/02/15 08:35:14;;;;;;;41.47;21.92;;;;;;;-6.28;100.00;102570.59;5021208;28;20136;-72
2024/02/15 08:37:41;;;;;;;42.72;22.00;;;;;;;-5.95;100.00;102639.50;5037070;28;20478;-76
2024/02/15 08:40:13;;;;;;;37.72;19.10;;;;;;;-6.00;100.00;102619.66;5035343;28;20060;-74
2024/02/15 08:42:42;;;;;;;42.05;19.13;;;;;;;-5.54;100.00;102648.63;5033276;28;20108;-76
2024/02/15 08:45:09;;;;;;;36.63;19.90;;;;;;;-5.51;100.00;102651.19;5035850;28;20045;-75
2024/02/15 08:47:46;;;;;;;34.25;20.35;;;;;;;-5.76;100.00;102629.81;5032670;28;20102;-77
2024/02/15 08:50:11;;;;;;;43.65;18.48;;;;;;;-5.81;100.00;102639.34;5033273;28;20072;-76
2024/02/15 08:52:40;;;;;;;35.57;19.43;;;;;;;-5.84;100.00;102635.91;5033054;28;20446;-77
2024/02/15 08:55:07;;;;;;;37.88;17.45;;;;;;;-5.73;100.00;102649.69;5031617;28;20454;-74
2024/02/15 08:57:33;;;;;;;37.45;19.52;;;;;;;-5.85;100.00;102629.00;5037427;28;20688;-74
2024/02/15 08:59:59;;;;;;;35.38;19.95;;;;;;;-5.63;100.00;102670.34;5032119;28;20037;-75
2024/02/15 09:02:24;;;;;;;37.30;19.23;;;;;;;-5.69;100.00;102652.25;5032614;28;20037;-73
2024/02/15 09:04:50;;;;;;;35.80;19.00;;;;;;;-5.78;100.00;102628.97;5033124;28;20029;-71
2024/02/15 09:07:15;;;;;;;39.13;18.40;;;;;;;-5.66;100.00;102634.03;5030606;28;20033;-74
2024/02/15 09:09:41;;;;;;;38.00;21.20;;;;;;;-5.35;100.00;102663.19;5041051;28;20501;-74
2024/02/15 09:12:07;;;;;;;36.33;18.70;;;;;;;-5.71;100.00;102594.28;5013931;28;20046;-70
2024/02/15 09:14:33;;;;;;;41.57;21.47;;;;;;;-5.51;100.00;102635.63;5032432;28;20103;-74
2024/02/15 09:17:07;;;;;;;38.35;18.98;;;;;;;-5.40;100.00;102651.97;5037330;28;20334;-74
2024/02/15 09:19:36;;;;;;;38.83;21.05;;;;;;;-5.43;100.00;102657.19;5034723;28;20045;-76
2024/02/15 09:22:04;;;;;;;41.57;20.47;;;;;;;-5.48;100.00;102664.19;5035260;28;20033;-72
2024/02/15 09:24:30;;;;;;;43.42;19.33;;;;;;;-5.49;100.00;102667.66;5015554;28;20099;-71
2024/02/15 09:26:57;;;;;;;39.95;23.80;;;;;;;-5.60;100.00;102659.06;5034336;28;20126;-70
2024/02/15 09:29:24;;;;;;;36.88;18.25;;;;;;;-5.65;100.00;102640.94;5031632;28;20057;-70
2024/02/15 09:31:50;;;;;;;35.58;18.50;;;;;;;-5.37;100.00;102651.94;5035353;28;20132;-72
2024/02/15 09:34:15;;;;;;;34.40;17.63;;;;;;;-5.18;100.00;102643.97;5035645;28;20156;-72
2024/02/15 09:36:40;;;;;;;37.93;17.93;;;;;;;-5.02;100.00;102664.56;5031689;28;20067;-73
2024/02/15 09:39:06;;;;;;;37.77;20.40;;;;;;;-5.13;100.00;102665.56;5033341;28;20495;-73
2024/02/15 09:41:33;;;;;;;35.73;19.80;;;;;;;-5.01;100.00;102675.81;5032743;28;20053;-72
2024/02/15 09:44:01;;;;;;;35.30;17.70;;;;;;;-5.23;100.00;102632.75;5031744;28;20398;-69
2024/02/15 09:46:27;;;;;;;38.05;19.60;;;;;;;-5.02;100.00;102661.09;5027828;28;20527;-69
2024/02/15 09:48:58;;;;;;;39.27;20.37;;;;;;;-5.03;100.00;102651.59;5031777;28;20069;-68
2024/02/15 09:51:25;;;;;;;34.28;18.98;;;;;;;-5.09;100.00;102647.31;5031816;28;20087;-69
2024/02/15 09:53:51;;;;;;;39.47;19.20;;;;;;;-5.25;100.00;102626.72;5034449;28;20558;-68
2024/02/15 09:56:18;;;;;;;31.95;18.48;;;;;;;-5.06;100.00;102667.22;5033823;28;20042;-67
2024/02/15 09:58:44;;;;;;;39.72;19.17;;;;;;;-5.32;100.00;102647.56;5029385;28;20137;-68
2024/02/15 10:01:11;;;;;;;37.30;18.05;;;;;;;-5.33;100.00;102644.97;5035230;28;20132;-68
2024/02/15 10:03:41;;;;;;;33.28;20.52;;;;;;;-5.34;100.00;102667.50;5030835;28;20521;-69
2024/02/15 10:06:06;;;;;;;40.60;19.75;;;;;;;-5.49;100.00;102643.41;5033528;28;20454;-70
2024/02/15 10:08:32;;;;;;;33.30;18.97;;;;;;;-5.34;100.00;102643.25;5029808;28;20083;-68
2024/02/15 10:11:08;;;;;;;38.07;20.60;;;;;;;-5.02;100.00;102648.09;5032709;28;20072;-71
2024/02/15 10:13:34;;;;;;;33.70;17.63;;;;;;;-4.86;100.00;102652.25;5032160;28;20509;-69
2024/02/15 10:16:17;;;;;;;38.75;18.92;;;;;;;-4.72;100.00;102673.75;5034282;28;20048;-67
2024/02/15 10:18:43;;;;;;;33.13;18.63;;;;;;;-4.76;100.00;102673.81;5033109;28;20140;-71
2024/02/15 10:21:08;;;;;;;36.97;19.83;;;;;;;-5.26;100.00;102612.00;5043346;28;20047;-68
2024/02/15 10:23:34;;;;;;;39.80;20.97;;;;;;;-5.12;100.00;102654.28;5041525;28;20115;-69
2024/02/15 10:26:02;;;;;;;33.10;19.13;;;;;;;-4.92;100.00;102662.72;5036921;28;20160;-71
2024/02/15 10:28:28;;;;;;;39.58;21.50;;;;;;;-4.78;100.00;102678.16;5035317;28;20128;-71
2024/02/15 10:30:54;;;;;;;38.20;19.77;;;;;;;-4.78;100.00;102671.22;5041396;28;20639;-69
2024/02/15 10:33:28;;;;;;;42.33;20.67;;;;;;;-4.83;100.00;102670.41;5034705;28;20029;-70
2024/02/15 10:36:08;;;;;;;37.33;20.33;;;;;;;-4.93;100.00;102662.72;5040608;28;20041;-67
2024/02/15 10:38:34;;;;;;;37.20;21.73;;;;;;;-5.00;100.00;102665.41;5027855;28;20127;-68
2024/02/15 10:41:08;;;;;;;39.57;21.87;;;;;;;-5.01;100.00;102661.09;5048706;28;20049;-70
2024/02/15 10:43:34;;;;;;;44.25;22.42;;;;;;;-5.12;100.00;102646.50;5035598;28;20073;-68
2024/02/15 10:46:03;;;;;;;40.13;19.38;;;;;;;-4.92;100.00;102644.50;5034629;28;20061;-69
2024/02/15 10:48:29;;;;;;;38.53;21.05;;;;;;;-4.75;100.00;102665.97;5043587;28;20037;-68
2024/02/15 10:50:59;;;;;;;40.83;21.70;;;;;;;-4.65;100.00;102648.53;5035075;28;20080;-69
2024/02/15 10:53:33;;;;;;;44.83;20.73;;;;;;;-4.66;100.00;102626.00;5038963;28;20567;-69
2024/02/15 10:56:10;;;;;;;44.10;21.75;;;;;;;-4.41;100.00;102662.94;5044604;28;20055;-67
2024/02/15 10:58:46;;;;;;;45.17;20.10;;;;;;;-4.50;100.00;102656.13;5040957;28;20037;-68
2024/02/15 11:01:17;;;;;;;37.15;20.10;;;;;;;-4.60;100.00;102645.88;5043692;28;20072;-67
2024/02/15 11:03:59;;;;;;;46.55;22.90;;;;;;;-4.59;100.00;102648.47;5037430;28;20442;-69
2024/02/15 11:06:31;;;;;;;36.25;18.70;;;;;;;-4.79;100.00;102640.91;5037911;28;20041;-67
2024/02/15 11:08:57;;;;;;;39.55;20.95;;;;;;;-4.86;100.00;102660.06;5047258;28;20034;-69
2024/02/15 11:11:23;;;;;;;33.75;18.80;;;;;;;-5.05;100.00;102627.38;5040167;28;20033;-67
2024/02/15 11:13:49;;;;;;;35.17;21.03;;;;;;;-4.89;100.00;102648.84;5051549;28;20511;-67